sensor_id;sensor_type;location;lat;lon;timestamp;P1;durP1;ratioP1;P2;durP2;ratioP2
9160;SDS011;4615;51.340;8.288;2023-05-07T00:02:15;3.60;;;3.30;;
9160;SDS011;4615;51.340;8.288;2023-05-07T00:04:42;3.35;;;3.05;;
9160;SDS011;4615;51.340;8.288;2023-05-07T00:07:09;2.85;;;2.65;;
9160;SDS011;4615;51.340;8.288;2023-05-07T00:09:35;3.07;;;2.73;;
9160;SDS011;4615;51.340;8.288;2023-05-07T00:12:03;2.85;;;2.63;;
9160;SDS011;4615;51.340;8.288;2023-05-07T00:14:30;3.90;;;2.60;;
9160;SDS011;4615;51.340;8.288;2023-05-07T00:16:56;4.13;;;2.80;;
9160;SDS011;4615;51.340;8.288;2023-05-07T00:19:22;3.20;;;2.90;;
9160;SDS011;4615;51.340;8.288;2023-05-07T00:21:49;5.22;;;3.30;;
9160;SDS011;4615;51.340;8.288;2023-05-07T00:24:15;3.67;;;3.03;;
9160;SDS011;4615;51.340;8.288;2023-05-07T00:26:42;3.45;;;2.90;;
9160;SDS011;4615;51.340;8.288;2023-05-07T00:29:09;3.97;;;3.28;;
9160;SDS011;4615;51.340;8.288;2023-05-07T00:31:36;3.28;;;2.97;;
9160;SDS011;4615;51.340;8.288;2023-05-07T00:34:02;3.57;;;2.80;;
9160;SDS011;4615;51.340;8.288;2023-05-07T00:36:29;3.08;;;2.75;;
9160;SDS011;4615;51.340;8.288;2023-05-07T00:38:56;3.45;;;3.10;;
9160;SDS011;4615;51.340;8.288;2023-05-07T00:41:23;2.58;;;2.38;;
9160;SDS011;4615;51.340;8.288;2023-05-07T00:43:53;3.25;;;2.40;;
9160;SDS011;4615;51.340;8.288;2023-05-07T00:46:20;4.15;;;2.80;;
9160;SDS011;4615;51.340;8.288;2023-05-07T00:48:47;4.32;;;2.97;;
9160;SDS011;4615;51.340;8.288;2023-05-07T00:51:14;3.03;;;2.72;;
9160;SDS011;4615;51.340;8.288;2023-05-07T00:53:40;3.50;;;2.97;;
9160;SDS011;4615;51.340;8.288;2023-05-07T00:56:06;5.57;;;3.17;;
9160;SDS011;4615;51.340;8.288;2023-05-07T00:58:33;3.20;;;2.88;;
9160;SDS011;4615;51.340;8.288;2023-05-07T01:00:59;3.90;;;3.15;;
9160;SDS011;4615;51.340;8.288;2023-05-07T01:03:27;3.53;;;3.00;;
9160;SDS011;4615;51.340;8.288;2023-05-07T01:05:54;3.85;;;3.08;;
9160;SDS011;4615;51.340;8.288;2023-05-07T01:08:20;4.15;;;3.20;;
9160;SDS011;4615;51.340;8.288;2023-05-07T01:10:49;3.10;;;2.80;;
9160;SDS011;4615;51.340;8.288;2023-05-07T01:13:17;3.10;;;2.80;;
9160;SDS011;4615;51.340;8.288;2023-05-07T01:15:44;3.30;;;3.00;;
9160;SDS011;4615;51.340;8.288;2023-05-07T01:18:11;3.17;;;2.75;;
9160;SDS011;4615;51.340;8.288;2023-05-07T01:20:39;3.38;;;2.85;;
9160;SDS011;4615;51.340;8.288;2023-05-07T01:23:07;3.40;;;2.80;;
9160;SDS011;4615;51.340;8.288;2023-05-07T01:25:34;3.03;;;2.60;;
9160;SDS011;4615;51.340;8.288;2023-05-07T01:28:01;3.50;;;2.70;;
9160;SDS011;4615;51.340;8.288;2023-05-07T01:30:27;3.00;;;2.70;;
9160;SDS011;4615;51.340;8.288;2023-05-07T01:32:56;2.83;;;2.63;;
9160;SDS011;4615;51.340;8.288;2023-05-07T01:35:26;3.47;;;2.60;;
9160;SDS011;4615;51.340;8.288;2023-05-07T01:37:53;3.20;;;2.90;;
9160;SDS011;4615;51.340;8.288;2023-05-07T01:40:21;4.35;;;3.30;;
9160;SDS011;4615;51.340;8.288;2023-05-07T01:42:48;3.78;;;3.40;;
9160;SDS011;4615;51.340;8.288;2023-05-07T01:45:15;3.33;;;2.90;;
9160;SDS011;4615;51.340;8.288;2023-05-07T01:47:41;3.50;;;3.00;;
9160;SDS011;4615;51.340;8.288;2023-05-07T01:50:08;3.97;;;2.90;;
9160;SDS011;4615;51.340;8.288;2023-05-07T01:52:36;4.38;;;3.08;;
9160;SDS011;4615;51.340;8.288;2023-05-07T01:55:02;3.70;;;3.00;;
9160;SDS011;4615;51.340;8.288;2023-05-07T01:57:31;4.10;;;3.10;;
9160;SDS011;4615;51.340;8.288;2023-05-07T01:59:57;3.80;;;3.40;;
9160;SDS011;4615;51.340;8.288;2023-05-07T02:02:24;4.30;;;3.23;;
9160;SDS011;4615;51.340;8.288;2023-05-07T02:04:50;3.95;;;3.20;;
9160;SDS011;4615;51.340;8.288;2023-05-07T02:07:16;5.40;;;3.37;;
9160;SDS011;4615;51.340;8.288;2023-05-07T02:09:43;4.05;;;3.60;;
9160;SDS011;4615;51.340;8.288;2023-05-07T02:12:09;4.25;;;3.80;;
9160;SDS011;4615;51.340;8.288;2023-05-07T02:14:37;4.00;;;3.60;;
9160;SDS011;4615;51.340;8.288;2023-05-07T02:17:03;3.95;;;3.65;;
9160;SDS011;4615;51.340;8.288;2023-05-07T02:19:30;5.13;;;3.60;;
9160;SDS011;4615;51.340;8.288;2023-05-07T02:21:56;4.72;;;3.63;;
9160;SDS011;4615;51.340;8.288;2023-05-07T02:24:22;4.00;;;3.60;;
9160;SDS011;4615;51.340;8.288;2023-05-07T02:26:49;4.32;;;3.85;;
9160;SDS011;4615;51.340;8.288;2023-05-07T02:29:15;3.93;;;3.53;;
9160;SDS011;4615;51.340;8.288;2023-05-07T02:31:43;4.82;;;3.53;;
9160;SDS011;4615;51.340;8.288;2023-05-07T02:34:09;4.28;;;3.38;;
9160;SDS011;4615;51.340;8.288;2023-05-07T02:36:36;5.55;;;3.45;;
9160;SDS011;4615;51.340;8.288;2023-05-07T02:39:03;4.35;;;3.65;;
9160;SDS011;4615;51.340;8.288;2023-05-07T02:41:29;5.68;;;3.67;;
9160;SDS011;4615;51.340;8.288;2023-05-07T02:43:55;3.50;;;3.20;;
9160;SDS011;4615;51.340;8.288;2023-05-07T02:46:22;3.88;;;3.45;;
9160;SDS011;4615;51.340;8.288;2023-05-07T02:48:49;4.88;;;3.70;;
9160;SDS011;4615;51.340;8.288;2023-05-07T02:51:17;5.90;;;3.70;;
9160;SDS011;4615;51.340;8.288;2023-05-07T02:53:43;4.18;;;3.50;;
9160;SDS011;4615;51.340;8.288;2023-05-07T02:56:11;4.28;;;3.70;;
9160;SDS011;4615;51.340;8.288;2023-05-07T02:58:37;4.13;;;3.70;;
9160;SDS011;4615;51.340;8.288;2023-05-07T03:01:04;4.30;;;3.80;;
9160;SDS011;4615;51.340;8.288;2023-05-07T03:03:30;4.28;;;3.88;;
9160;SDS011;4615;51.340;8.288;2023-05-07T03:05:58;3.88;;;3.50;;
9160;SDS011;4615;51.340;8.288;2023-05-07T03:08:24;6.25;;;3.60;;
9160;SDS011;4615;51.340;8.288;2023-05-07T03:10:51;3.92;;;3.30;;
9160;SDS011;4615;51.340;8.288;2023-05-07T03:13:17;3.90;;;3.60;;
9160;SDS011;4615;51.340;8.288;2023-05-07T03:15:44;4.35;;;3.40;;
9160;SDS011;4615;51.340;8.288;2023-05-07T03:18:10;4.18;;;3.70;;
9160;SDS011;4615;51.340;8.288;2023-05-07T03:20:36;4.50;;;4.03;;
9160;SDS011;4615;51.340;8.288;2023-05-07T03:23:04;5.03;;;3.78;;
9160;SDS011;4615;51.340;8.288;2023-05-07T03:25:31;5.95;;;4.10;;
9160;SDS011;4615;51.340;8.288;2023-05-07T03:27:57;5.53;;;3.78;;
9160;SDS011;4615;51.340;8.288;2023-05-07T03:30:24;4.23;;;3.83;;
9160;SDS011;4615;51.340;8.288;2023-05-07T03:32:51;4.10;;;3.58;;
9160;SDS011;4615;51.340;8.288;2023-05-07T03:35:17;4.70;;;3.70;;
9160;SDS011;4615;51.340;8.288;2023-05-07T03:37:43;4.72;;;3.22;;
9160;SDS011;4615;51.340;8.288;2023-05-07T03:40:12;5.00;;;3.70;;
9160;SDS011;4615;51.340;8.288;2023-05-07T03:42:38;4.53;;;3.80;;
9160;SDS011;4615;51.340;8.288;2023-05-07T03:45:05;4.40;;;4.00;;
9160;SDS011;4615;51.340;8.288;2023-05-07T03:47:31;4.93;;;4.00;;
9160;SDS011;4615;51.340;8.288;2023-05-07T03:49:58;4.50;;;3.92;;
9160;SDS011;4615;51.340;8.288;2023-05-07T03:52:24;4.25;;;3.83;;
9160;SDS011;4615;51.340;8.288;2023-05-07T03:54:51;4.15;;;3.85;;
9160;SDS011;4615;51.340;8.288;2023-05-07T03:57:18;5.00;;;4.10;;
9160;SDS011;4615;51.340;8.288;2023-05-07T03:59:45;4.65;;;4.25;;
9160;SDS011;4615;51.340;8.288;2023-05-07T04:02:11;4.60;;;4.20;;
9160;SDS011;4615;51.340;8.288;2023-05-07T04:04:37;5.10;;;4.20;;
9160;SDS011;4615;51.340;8.288;2023-05-07T04:07:04;4.30;;;3.63;;
9160;SDS011;4615;51.340;8.288;2023-05-07T04:09:30;4.18;;;3.72;;
9160;SDS011;4615;51.340;8.288;2023-05-07T04:11:57;4.03;;;3.70;;
9160;SDS011;4615;51.340;8.288;2023-05-07T04:14:24;4.30;;;3.90;;
9160;SDS011;4615;51.340;8.288;2023-05-07T04:16:51;4.63;;;4.13;;
9160;SDS011;4615;51.340;8.288;2023-05-07T04:19:17;4.32;;;3.95;;
9160;SDS011;4615;51.340;8.288;2023-05-07T04:21:43;4.20;;;3.80;;
9160;SDS011;4615;51.340;8.288;2023-05-07T04:24:10;4.60;;;4.15;;
9160;SDS011;4615;51.340;8.288;2023-05-07T04:26:36;5.10;;;4.10;;
9160;SDS011;4615;51.340;8.288;2023-05-07T04:29:03;4.75;;;4.30;;
9160;SDS011;4615;51.340;8.288;2023-05-07T04:31:30;5.72;;;4.40;;
9160;SDS011;4615;51.340;8.288;2023-05-07T04:33:57;4.88;;;4.20;;
9160;SDS011;4615;51.340;8.288;2023-05-07T04:36:23;5.05;;;4.03;;
9160;SDS011;4615;51.340;8.288;2023-05-07T04:38:52;4.53;;;4.03;;
9160;SDS011;4615;51.340;8.288;2023-05-07T04:41:19;5.80;;;4.30;;
9160;SDS011;4615;51.340;8.288;2023-05-07T04:43:45;4.75;;;3.70;;
9160;SDS011;4615;51.340;8.288;2023-05-07T04:46:12;5.10;;;4.68;;
9160;SDS011;4615;51.340;8.288;2023-05-07T04:48:39;4.30;;;3.90;;
9160;SDS011;4615;51.340;8.288;2023-05-07T04:51:06;4.05;;;3.65;;
9160;SDS011;4615;51.340;8.288;2023-05-07T04:53:32;4.63;;;3.83;;
9160;SDS011;4615;51.340;8.288;2023-05-07T04:55:58;6.07;;;3.90;;
9160;SDS011;4615;51.340;8.288;2023-05-07T04:58:25;4.13;;;3.83;;
9160;SDS011;4615;51.340;8.288;2023-05-07T05:00:52;4.63;;;4.22;;
9160;SDS011;4615;51.340;8.288;2023-05-07T05:03:18;5.63;;;4.50;;
9160;SDS011;4615;51.340;8.288;2023-05-07T05:05:46;4.30;;;3.90;;
9160;SDS011;4615;51.340;8.288;2023-05-07T05:08:14;5.30;;;4.40;;
9160;SDS011;4615;51.340;8.288;2023-05-07T05:10:42;4.90;;;4.47;;
9160;SDS011;4615;51.340;8.288;2023-05-07T05:13:08;4.70;;;4.30;;
9160;SDS011;4615;51.340;8.288;2023-05-07T05:15:34;5.18;;;4.72;;
9160;SDS011;4615;51.340;8.288;2023-05-07T05:18:01;5.18;;;4.45;;
9160;SDS011;4615;51.340;8.288;2023-05-07T05:20:27;6.85;;;4.70;;
9160;SDS011;4615;51.340;8.288;2023-05-07T05:22:55;4.00;;;3.70;;
9160;SDS011;4615;51.340;8.288;2023-05-07T05:25:21;5.32;;;3.90;;
9160;SDS011;4615;51.340;8.288;2023-05-07T05:27:48;4.03;;;3.60;;
9160;SDS011;4615;51.340;8.288;2023-05-07T05:30:14;5.95;;;4.10;;
9160;SDS011;4615;51.340;8.288;2023-05-07T05:32:40;6.40;;;3.80;;
9160;SDS011;4615;51.340;8.288;2023-05-07T05:35:07;4.55;;;3.90;;
9160;SDS011;4615;51.340;8.288;2023-05-07T05:37:34;5.28;;;4.70;;
9160;SDS011;4615;51.340;8.288;2023-05-07T05:40:02;4.40;;;4.00;;
9160;SDS011;4615;51.340;8.288;2023-05-07T05:42:29;4.28;;;3.88;;
9160;SDS011;4615;51.340;8.288;2023-05-07T05:44:55;5.13;;;4.03;;
9160;SDS011;4615;51.340;8.288;2023-05-07T05:47:22;4.85;;;3.88;;
9160;SDS011;4615;51.340;8.288;2023-05-07T05:49:48;5.32;;;4.00;;
9160;SDS011;4615;51.340;8.288;2023-05-07T05:52:15;4.47;;;4.07;;
9160;SDS011;4615;51.340;8.288;2023-05-07T05:54:41;5.13;;;3.97;;
9160;SDS011;4615;51.340;8.288;2023-05-07T05:57:09;4.50;;;4.00;;
9160;SDS011;4615;51.340;8.288;2023-05-07T05:59:36;5.57;;;4.30;;
9160;SDS011;4615;51.340;8.288;2023-05-07T06:02:02;5.82;;;4.25;;
9160;SDS011;4615;51.340;8.288;2023-05-07T06:04:28;5.80;;;5.18;;
9160;SDS011;4615;51.340;8.288;2023-05-07T06:06:55;5.60;;;5.10;;
9160;SDS011;4615;51.340;8.288;2023-05-07T06:09:21;5.35;;;4.85;;
9160;SDS011;4615;51.340;8.288;2023-05-07T06:11:48;6.38;;;4.82;;
9160;SDS011;4615;51.340;8.288;2023-05-07T06:14:16;6.10;;;4.97;;
9160;SDS011;4615;51.340;8.288;2023-05-07T06:16:42;5.80;;;4.53;;
9160;SDS011;4615;51.340;8.288;2023-05-07T06:19:09;7.03;;;4.22;;
9160;SDS011;4615;51.340;8.288;2023-05-07T06:21:35;5.50;;;5.00;;
9160;SDS011;4615;51.340;8.288;2023-05-07T06:24:01;5.70;;;5.20;;
9160;SDS011;4615;51.340;8.288;2023-05-07T06:26:28;4.80;;;4.40;;
9160;SDS011;4615;51.340;8.288;2023-05-07T06:28:54;6.10;;;5.60;;
9160;SDS011;4615;51.340;8.288;2023-05-07T06:31:22;6.13;;;5.55;;
9160;SDS011;4615;51.340;8.288;2023-05-07T06:33:51;6.30;;;5.70;;
9160;SDS011;4615;51.340;8.288;2023-05-07T06:36:17;6.30;;;5.55;;
9160;SDS011;4615;51.340;8.288;2023-05-07T06:38:43;6.65;;;6.15;;
9160;SDS011;4615;51.340;8.288;2023-05-07T06:41:10;6.40;;;5.90;;
9160;SDS011;4615;51.340;8.288;2023-05-07T06:43:36;7.00;;;6.40;;
9160;SDS011;4615;51.340;8.288;2023-05-07T06:46:03;7.15;;;6.53;;
9160;SDS011;4615;51.340;8.288;2023-05-07T06:48:30;7.93;;;7.13;;
9160;SDS011;4615;51.340;8.288;2023-05-07T06:50:57;6.63;;;6.03;;
9160;SDS011;4615;51.340;8.288;2023-05-07T06:53:23;6.85;;;6.28;;
9160;SDS011;4615;51.340;8.288;2023-05-07T06:55:50;6.82;;;6.22;;
9160;SDS011;4615;51.340;8.288;2023-05-07T06:58:17;7.32;;;6.72;;
9160;SDS011;4615;51.340;8.288;2023-05-07T07:00:43;6.90;;;6.30;;
9160;SDS011;4615;51.340;8.288;2023-05-07T07:03:10;7.68;;;7.07;;
9160;SDS011;4615;51.340;8.288;2023-05-07T07:05:40;7.32;;;6.63;;
9160;SDS011;4615;51.340;8.288;2023-05-07T07:08:06;6.80;;;6.30;;
9160;SDS011;4615;51.340;8.288;2023-05-07T07:10:33;7.57;;;6.88;;
9160;SDS011;4615;51.340;8.288;2023-05-07T07:12:59;7.88;;;7.18;;
9160;SDS011;4615;51.340;8.288;2023-05-07T07:15:25;6.83;;;6.27;;
9160;SDS011;4615;51.340;8.288;2023-05-07T07:17:52;7.70;;;7.00;;
9160;SDS011;4615;51.340;8.288;2023-05-07T07:20:18;7.60;;;6.97;;
9160;SDS011;4615;51.340;8.288;2023-05-07T07:22:46;7.03;;;6.45;;
9160;SDS011;4615;51.340;8.288;2023-05-07T07:25:12;7.07;;;6.47;;
9160;SDS011;4615;51.340;8.288;2023-05-07T07:27:39;6.85;;;6.22;;
9160;SDS011;4615;51.340;8.288;2023-05-07T07:30:06;7.47;;;6.00;;
9160;SDS011;4615;51.340;8.288;2023-05-07T07:32:32;6.75;;;6.13;;
9160;SDS011;4615;51.340;8.288;2023-05-07T07:34:59;6.40;;;5.90;;
9160;SDS011;4615;51.340;8.288;2023-05-07T07:37:25;6.70;;;6.10;;
9160;SDS011;4615;51.340;8.288;2023-05-07T07:39:53;6.25;;;5.65;;
9160;SDS011;4615;51.340;8.288;2023-05-07T07:42:19;6.32;;;5.72;;
9160;SDS011;4615;51.340;8.288;2023-05-07T07:44:46;6.10;;;5.60;;
9160;SDS011;4615;51.340;8.288;2023-05-07T07:47:12;6.60;;;6.00;;
9160;SDS011;4615;51.340;8.288;2023-05-07T07:49:38;6.30;;;5.70;;
9160;SDS011;4615;51.340;8.288;2023-05-07T07:52:05;6.10;;;5.60;;
9160;SDS011;4615;51.340;8.288;2023-05-07T07:54:31;6.78;;;6.03;;
9160;SDS011;4615;51.340;8.288;2023-05-07T07:56:59;6.18;;;5.68;;
9160;SDS011;4615;51.340;8.288;2023-05-07T07:59:26;6.20;;;5.70;;
9160;SDS011;4615;51.340;8.288;2023-05-07T08:01:52;5.53;;;5.13;;
9160;SDS011;4615;51.340;8.288;2023-05-07T08:04:21;6.15;;;5.60;;
9160;SDS011;4615;51.340;8.288;2023-05-07T08:06:48;5.60;;;5.20;;
9160;SDS011;4615;51.340;8.288;2023-05-07T08:09:14;7.90;;;5.30;;
9160;SDS011;4615;51.340;8.288;2023-05-07T08:11:41;6.53;;;5.93;;
9160;SDS011;4615;51.340;8.288;2023-05-07T08:14:08;6.60;;;6.00;;
9160;SDS011;4615;51.340;8.288;2023-05-07T08:16:35;6.07;;;5.57;;
9160;SDS011;4615;51.340;8.288;2023-05-07T08:19:01;6.20;;;5.70;;
9160;SDS011;4615;51.340;8.288;2023-05-07T08:21:28;5.85;;;5.35;;
9160;SDS011;4615;51.340;8.288;2023-05-07T08:23:55;6.15;;;5.60;;
9160;SDS011;4615;51.340;8.288;2023-05-07T08:26:22;6.00;;;5.40;;
9160;SDS011;4615;51.340;8.288;2023-05-07T08:28:48;6.75;;;5.30;;
9160;SDS011;4615;51.340;8.288;2023-05-07T08:31:16;5.67;;;5.27;;
9160;SDS011;4615;51.340;8.288;2023-05-07T08:33:42;5.57;;;5.07;;
9160;SDS011;4615;51.340;8.288;2023-05-07T08:36:09;6.40;;;5.80;;
9160;SDS011;4615;51.340;8.288;2023-05-07T08:38:35;5.50;;;5.10;;
9160;SDS011;4615;51.340;8.288;2023-05-07T08:41:01;5.70;;;5.20;;
9160;SDS011;4615;51.340;8.288;2023-05-07T08:43:28;5.78;;;5.28;;
9160;SDS011;4615;51.340;8.288;2023-05-07T08:45:54;5.40;;;5.00;;
9160;SDS011;4615;51.340;8.288;2023-05-07T08:48:24;5.30;;;4.80;;
9160;SDS011;4615;51.340;8.288;2023-05-07T08:50:51;5.15;;;4.68;;
9160;SDS011;4615;51.340;8.288;2023-05-07T08:53:18;5.20;;;4.80;;
9160;SDS011;4615;51.340;8.288;2023-05-07T08:55:45;5.20;;;4.80;;
9160;SDS011;4615;51.340;8.288;2023-05-07T08:58:12;5.25;;;4.85;;
9160;SDS011;4615;51.340;8.288;2023-05-07T09:00:38;5.00;;;4.60;;
9160;SDS011;4615;51.340;8.288;2023-05-07T09:03:05;5.03;;;4.63;;
9160;SDS011;4615;51.340;8.288;2023-05-07T09:05:33;5.30;;;4.80;;
9160;SDS011;4615;51.340;8.288;2023-05-07T09:08:01;5.00;;;4.50;;
9160;SDS011;4615;51.340;8.288;2023-05-07T09:10:28;4.85;;;4.45;;
9160;SDS011;4615;51.340;8.288;2023-05-07T09:12:55;5.68;;;4.40;;
9160;SDS011;4615;51.340;8.288;2023-05-07T09:15:21;4.45;;;4.05;;
9160;SDS011;4615;51.340;8.288;2023-05-07T09:17:48;4.40;;;4.10;;
9160;SDS011;4615;51.340;8.288;2023-05-07T09:20:14;4.40;;;4.10;;
9160;SDS011;4615;51.340;8.288;2023-05-07T09:22:43;4.65;;;4.35;;
9160;SDS011;4615;51.340;8.288;2023-05-07T09:25:10;4.70;;;4.30;;
9160;SDS011;4615;51.340;8.288;2023-05-07T09:27:36;5.55;;;4.22;;
9160;SDS011;4615;51.340;8.288;2023-05-07T09:30:03;4.80;;;4.40;;
9160;SDS011;4615;51.340;8.288;2023-05-07T09:32:34;4.55;;;4.15;;
9160;SDS011;4615;51.340;8.288;2023-05-07T09:35:00;4.30;;;3.90;;
9160;SDS011;4615;51.340;8.288;2023-05-07T09:37:27;4.45;;;4.13;;
9160;SDS011;4615;51.340;8.288;2023-05-07T09:39:55;4.50;;;4.10;;
9160;SDS011;4615;51.340;8.288;2023-05-07T09:42:22;4.57;;;4.18;;
9160;SDS011;4615;51.340;8.288;2023-05-07T09:44:49;4.07;;;3.75;;
9160;SDS011;4615;51.340;8.288;2023-05-07T09:47:17;5.00;;;4.60;;
9160;SDS011;4615;51.340;8.288;2023-05-07T09:49:45;4.65;;;4.25;;
9160;SDS011;4615;51.340;8.288;2023-05-07T09:52:13;5.60;;;4.38;;
9160;SDS011;4615;51.340;8.288;2023-05-07T09:54:39;4.35;;;4.03;;
9160;SDS011;4615;51.340;8.288;2023-05-07T09:57:09;5.22;;;4.00;;
9160;SDS011;4615;51.340;8.288;2023-05-07T09:59:36;4.30;;;4.00;;
9160;SDS011;4615;51.340;8.288;2023-05-07T10:02:04;4.40;;;4.00;;
9160;SDS011;4615;51.340;8.288;2023-05-07T10:04:31;4.18;;;3.70;;
9160;SDS011;4615;51.340;8.288;2023-05-07T10:06:57;4.40;;;4.00;;
9160;SDS011;4615;51.340;8.288;2023-05-07T10:09:25;4.25;;;3.80;;
9160;SDS011;4615;51.340;8.288;2023-05-07T10:11:51;4.38;;;3.97;;
9160;SDS011;4615;51.340;8.288;2023-05-07T10:14:20;4.13;;;3.72;;
9160;SDS011;4615;51.340;8.288;2023-05-07T10:16:47;5.07;;;4.57;;
9160;SDS011;4615;51.340;8.288;2023-05-07T10:19:14;4.55;;;4.15;;
9160;SDS011;4615;51.340;8.288;2023-05-07T10:21:42;5.88;;;4.30;;
9160;SDS011;4615;51.340;8.288;2023-05-07T10:24:10;5.13;;;4.63;;
9160;SDS011;4615;51.340;8.288;2023-05-07T10:26:39;5.00;;;4.60;;
9160;SDS011;4615;51.340;8.288;2023-05-07T10:29:14;5.40;;;5.00;;
9160;SDS011;4615;51.340;8.288;2023-05-07T10:31:54;5.85;;;5.10;;
9160;SDS011;4615;51.340;8.288;2023-05-07T10:34:23;5.60;;;5.10;;
9160;SDS011;4615;51.340;8.288;2023-05-07T10:36:50;5.40;;;4.88;;
9160;SDS011;4615;51.340;8.288;2023-05-07T10:39:18;6.32;;;5.07;;
9160;SDS011;4615;51.340;8.288;2023-05-07T10:41:45;5.50;;;4.90;;
9160;SDS011;4615;51.340;8.288;2023-05-07T10:44:12;5.40;;;4.90;;
9160;SDS011;4615;51.340;8.288;2023-05-07T10:47:04;5.82;;;5.22;;
9160;SDS011;4615;51.340;8.288;2023-05-07T10:49:31;5.13;;;4.70;;
9160;SDS011;4615;51.340;8.288;2023-05-07T10:52:13;5.60;;;5.00;;
9160;SDS011;4615;51.340;8.288;2023-05-07T10:54:40;5.45;;;4.95;;
9160;SDS011;4615;51.340;8.288;2023-05-07T10:59:52;5.57;;;5.07;;
9160;SDS011;4615;51.340;8.288;2023-05-07T11:02:20;4.75;;;4.32;;
9160;SDS011;4615;51.340;8.288;2023-05-07T11:04:49;5.28;;;4.88;;
9160;SDS011;4615;51.340;8.288;2023-05-07T11:07:35;6.18;;;4.75;;
9160;SDS011;4615;51.340;8.288;2023-05-07T11:10:05;5.45;;;4.95;;
9160;SDS011;4615;51.340;8.288;2023-05-07T11:12:48;5.10;;;4.60;;
9160;SDS011;4615;51.340;8.288;2023-05-07T11:15:31;4.97;;;4.57;;
9160;SDS011;4615;51.340;8.288;2023-05-07T11:18:00;5.45;;;4.95;;
9160;SDS011;4615;51.340;8.288;2023-05-07T11:23:14;5.55;;;5.07;;
9160;SDS011;4615;51.340;8.288;2023-05-07T11:26:00;5.10;;;4.70;;
9160;SDS011;4615;51.340;8.288;2023-05-07T11:28:27;5.25;;;4.85;;
9160;SDS011;4615;51.340;8.288;2023-05-07T11:30:54;5.47;;;5.00;;
9160;SDS011;4615;51.340;8.288;2023-05-07T11:33:21;5.45;;;4.97;;
9160;SDS011;4615;51.340;8.288;2023-05-07T11:35:50;6.13;;;5.40;;
9160;SDS011;4615;51.340;8.288;2023-05-07T11:38:16;7.72;;;6.00;;
9160;SDS011;4615;51.340;8.288;2023-05-07T11:40:48;6.90;;;6.30;;
9160;SDS011;4615;51.340;8.288;2023-05-07T11:43:14;8.45;;;7.30;;
9160;SDS011;4615;51.340;8.288;2023-05-07T11:45:41;8.25;;;7.35;;
9160;SDS011;4615;51.340;8.288;2023-05-07T11:48:07;7.28;;;6.57;;
9160;SDS011;4615;51.340;8.288;2023-05-07T11:50:35;7.40;;;6.70;;
9160;SDS011;4615;51.340;8.288;2023-05-07T11:53:07;7.85;;;7.15;;
9160;SDS011;4615;51.340;8.288;2023-05-07T11:55:33;7.78;;;6.95;;
9160;SDS011;4615;51.340;8.288;2023-05-07T11:58:00;7.57;;;6.28;;
9160;SDS011;4615;51.340;8.288;2023-05-07T12:00:26;7.05;;;6.35;;
9160;SDS011;4615;51.340;8.288;2023-05-07T12:02:53;6.60;;;6.00;;
9160;SDS011;4615;51.340;8.288;2023-05-07T12:05:19;6.25;;;5.65;;
9160;SDS011;4615;51.340;8.288;2023-05-07T12:07:47;6.50;;;5.88;;
9160;SDS011;4615;51.340;8.288;2023-05-07T12:10:13;6.97;;;6.28;;
9160;SDS011;4615;51.340;8.288;2023-05-07T12:12:40;7.35;;;6.68;;
9160;SDS011;4615;51.340;8.288;2023-05-07T12:15:07;6.75;;;6.18;;
9160;SDS011;4615;51.340;8.288;2023-05-07T12:17:33;6.80;;;6.13;;
9160;SDS011;4615;51.340;8.288;2023-05-07T12:20:00;6.47;;;5.97;;
9160;SDS011;4615;51.340;8.288;2023-05-07T12:22:27;7.63;;;6.93;;
9160;SDS011;4615;51.340;8.288;2023-05-07T12:24:57;6.60;;;6.00;;
9160;SDS011;4615;51.340;8.288;2023-05-07T12:27:25;6.40;;;5.80;;
9160;SDS011;4615;51.340;8.288;2023-05-07T12:29:51;5.63;;;5.00;;
9160;SDS011;4615;51.340;8.288;2023-05-07T12:32:18;5.00;;;4.50;;
9160;SDS011;4615;51.340;8.288;2023-05-07T12:34:45;4.77;;;4.37;;
9160;SDS011;4615;51.340;8.288;2023-05-07T12:37:12;7.43;;;6.78;;
9160;SDS011;4615;51.340;8.288;2023-05-07T12:39:42;6.85;;;5.95;;
9160;SDS011;4615;51.340;8.288;2023-05-07T12:42:11;6.75;;;5.80;;
9160;SDS011;4615;51.340;8.288;2023-05-07T12:44:40;8.18;;;5.68;;
9160;SDS011;4615;51.340;8.288;2023-05-07T12:47:07;7.50;;;5.78;;
9160;SDS011;4615;51.340;8.288;2023-05-07T12:49:34;7.10;;;5.40;;
9160;SDS011;4615;51.340;8.288;2023-05-07T12:52:02;6.22;;;5.28;;
9160;SDS011;4615;51.340;8.288;2023-05-07T12:54:29;5.80;;;4.70;;
9160;SDS011;4615;51.340;8.288;2023-05-07T12:57:02;6.03;;;5.18;;
9160;SDS011;4615;51.340;8.288;2023-05-07T12:59:35;6.65;;;5.50;;
9160;SDS011;4615;51.340;8.288;2023-05-07T13:02:02;5.72;;;5.20;;
9160;SDS011;4615;51.340;8.288;2023-05-07T13:04:28;6.45;;;4.90;;
9160;SDS011;4615;51.340;8.288;2023-05-07T13:06:55;5.65;;;5.00;;
9160;SDS011;4615;51.340;8.288;2023-05-07T13:09:21;5.88;;;4.85;;
9160;SDS011;4615;51.340;8.288;2023-05-07T13:11:47;4.85;;;4.43;;
9160;SDS011;4615;51.340;8.288;2023-05-07T13:14:14;6.10;;;5.22;;
9160;SDS011;4615;51.340;8.288;2023-05-07T13:16:42;7.07;;;5.10;;
9160;SDS011;4615;51.340;8.288;2023-05-07T13:19:08;5.43;;;4.93;;
9160;SDS011;4615;51.340;8.288;2023-05-07T13:21:35;5.93;;;5.32;;
9160;SDS011;4615;51.340;8.288;2023-05-07T13:24:01;6.60;;;6.00;;
9160;SDS011;4615;51.340;8.288;2023-05-07T13:26:29;7.47;;;6.32;;
9160;SDS011;4615;51.340;8.288;2023-05-07T13:28:56;6.60;;;5.93;;
9160;SDS011;4615;51.340;8.288;2023-05-07T13:31:22;6.83;;;6.13;;
9160;SDS011;4615;51.340;8.288;2023-05-07T13:33:50;5.95;;;5.35;;
9160;SDS011;4615;51.340;8.288;2023-05-07T13:36:17;5.88;;;5.20;;
9160;SDS011;4615;51.340;8.288;2023-05-07T13:38:44;6.20;;;5.60;;
9160;SDS011;4615;51.340;8.288;2023-05-07T13:41:11;5.82;;;5.30;;
9160;SDS011;4615;51.340;8.288;2023-05-07T13:43:37;6.80;;;6.15;;
9160;SDS011;4615;51.340;8.288;2023-05-07T13:46:04;9.35;;;8.45;;
9160;SDS011;4615;51.340;8.288;2023-05-07T13:48:30;9.57;;;7.90;;
9160;SDS011;4615;51.340;8.288;2023-05-07T13:50:58;9.48;;;8.65;;
9160;SDS011;4615;51.340;8.288;2023-05-07T13:53:24;8.13;;;7.32;;
9160;SDS011;4615;51.340;8.288;2023-05-07T13:55:51;8.05;;;7.25;;
9160;SDS011;4615;51.340;8.288;2023-05-07T13:58:17;7.50;;;6.80;;
9160;SDS011;4615;51.340;8.288;2023-05-07T14:00:44;7.47;;;6.78;;
9160;SDS011;4615;51.340;8.288;2023-05-07T14:03:10;7.00;;;6.30;;
9160;SDS011;4615;51.340;8.288;2023-05-07T14:05:36;7.60;;;7.00;;
9160;SDS011;4615;51.340;8.288;2023-05-07T14:08:04;7.40;;;6.15;;
9160;SDS011;4615;51.340;8.288;2023-05-07T14:10:32;7.10;;;6.40;;
9160;SDS011;4615;51.340;8.288;2023-05-07T14:13:02;9.15;;;6.90;;
9160;SDS011;4615;51.340;8.288;2023-05-07T14:15:29;7.13;;;6.43;;
9160;SDS011;4615;51.340;8.288;2023-05-07T14:17:57;6.63;;;6.13;;
9160;SDS011;4615;51.340;8.288;2023-05-07T14:20:24;6.57;;;5.97;;
9160;SDS011;4615;51.340;8.288;2023-05-07T14:22:50;6.50;;;5.90;;
9160;SDS011;4615;51.340;8.288;2023-05-07T14:25:18;7.15;;;6.50;;
9160;SDS011;4615;51.340;8.288;2023-05-07T14:27:45;6.70;;;6.10;;
9160;SDS011;4615;51.340;8.288;2023-05-07T14:30:11;6.57;;;5.95;;
9160;SDS011;4615;51.340;8.288;2023-05-07T14:32:38;6.75;;;6.15;;
9160;SDS011;4615;51.340;8.288;2023-05-07T14:35:04;6.80;;;6.18;;
9160;SDS011;4615;51.340;8.288;2023-05-07T14:37:31;6.90;;;6.30;;
9160;SDS011;4615;51.340;8.288;2023-05-07T14:39:57;7.70;;;6.90;;
9160;SDS011;4615;51.340;8.288;2023-05-07T14:42:25;7.10;;;6.50;;
9160;SDS011;4615;51.340;8.288;2023-05-07T14:44:51;8.60;;;7.68;;
9160;SDS011;4615;51.340;8.288;2023-05-07T14:47:18;8.25;;;7.50;;
9160;SDS011;4615;51.340;8.288;2023-05-07T14:49:44;8.27;;;7.00;;
9160;SDS011;4615;51.340;8.288;2023-05-07T14:52:10;8.38;;;7.57;;
9160;SDS011;4615;51.340;8.288;2023-05-07T14:54:37;8.85;;;8.02;;
9160;SDS011;4615;51.340;8.288;2023-05-07T14:57:04;9.63;;;8.57;;
9160;SDS011;4615;51.340;8.288;2023-05-07T14:59:32;9.97;;;9.00;;
9160;SDS011;4615;51.340;8.288;2023-05-07T15:01:58;9.70;;;8.80;;
9160;SDS011;4615;51.340;8.288;2023-05-07T15:04:25;9.90;;;9.00;;
9160;SDS011;4615;51.340;8.288;2023-05-07T15:06:51;9.60;;;8.67;;
9160;SDS011;4615;51.340;8.288;2023-05-07T15:09:18;9.18;;;8.32;;
9160;SDS011;4615;51.340;8.288;2023-05-07T15:11:45;9.05;;;8.15;;
9160;SDS011;4615;51.340;8.288;2023-05-07T15:14:11;9.55;;;8.70;;
9160;SDS011;4615;51.340;8.288;2023-05-07T15:16:39;10.35;;;9.30;;
9160;SDS011;4615;51.340;8.288;2023-05-07T15:19:06;9.50;;;8.65;;
9160;SDS011;4615;51.340;8.288;2023-05-07T15:21:32;10.27;;;9.27;;